Time;durP1;ratioP1;P1;durP2;ratioP2;P2;SDS_P1;SDS_P2;PMS_P1;PMS_P2;Temp;Humidity;BMP_temperature;BMP_pressure;BME280_temperature;BME280_humidity;BME280_pressure;Samples;Min_cycle;Max_cycle;Signal;HPM_P1;HPM_P2
2022/03/25 00:00:47;;;;;;;150.52;81.90;;;;;;;4.08;88.43;102964.66;2080657;28;20934;-70
2022/03/25 00:01:51;;;;;;;168.65;88.82;;;;;;;4.05;88.12;102971.59;2079191;28;45517;-71
2022/03/25 00:02:53;;;;;;;151.07;80.53;;;;;;;4.03;88.31;102975.94;2079759;28;45083;-70
2022/03/25 00:03:55;;;;;;;174.55;89.03;;;;;;;4.01;88.76;102970.56;2079593;28;44189;-70
2022/03/25 00:04:57;;;;;;;166.70;86.57;;;;;;;3.97;88.19;102969.56;2080048;28;43892;-71
2022/03/25 00:05:59;;;;;;;170.07;87.75;;;;;;;3.97;89.09;102973.97;2079185;28;46010;-71
2022/03/25 00:07:03;;;;;;;191.05;97.03;;;;;;;3.98;89.31;102963.44;2080673;28;28808;-71
2022/03/25 00:08:05;;;;;;;166.27;88.13;;;;;;;3.96;89.32;102961.56;2079524;28;46142;-70
2022/03/25 00:09:07;;;;;;;176.05;91.22;;;;;;;3.95;89.25;102963.31;2079764;28;43581;-72
2022/03/25 00:10:09;;;;;;;144.85;77.13;;;;;;;3.96;89.44;102967.75;2079319;28;43991;-72
2022/03/25 00:11:11;;;;;;;158.00;82.97;;;;;;;3.93;88.84;102958.78;2080057;28;45757;-72
2022/03/25 00:12:13;;;;;;;142.18;75.90;;;;;;;3.93;89.29;102961.44;2079421;28;28904;-70
2022/03/25 00:13:14;;;;;;;142.57;75.90;;;;;;;3.93;88.84;102970.31;2079264;28;46485;-70
2022/03/25 00:14:16;;;;;;;164.43;85.68;;;;;;;3.91;89.29;102957.81;2079090;28;43413;-73
2022/03/25 00:15:20;;;;;;;175.57;89.10;;;;;;;3.88;89.38;102960.38;2079123;28;44254;-70
2022/03/25 00:16:24;;;;;;;153.27;78.90;;;;;;;3.89;89.40;102956.88;2079409;28;45946;-70
2022/03/25 00:17:26;;;;;;;165.23;86.18;;;;;;;3.88;89.26;102963.03;2080187;28;43959;-71
2022/03/25 00:18:28;;;;;;;163.70;83.50;;;;;;;3.88;89.82;102963.03;2079753;28;45604;-71
2022/03/25 00:19:29;;;;;;;162.15;83.10;;;;;;;3.85;89.17;102953.19;2079419;28;43717;-71
2022/03/25 00:20:31;;;;;;;164.90;86.43;;;;;;;3.85;89.14;102962.91;2079566;28;44538;-70
2022/03/25 00:21:33;;;;;;;154.88;76.78;;;;;;;3.83;89.47;102957.53;2079387;28;46218;-70
2022/03/25 00:22:35;;;;;;;198.15;98.13;;;;;;;3.91;90.52;102963.13;2078813;28;45060;-69
2022/03/25 00:23:39;;;;;;;201.75;97.47;;;;;;;3.91;90.56;102963.13;2070795;28;45755;-71
2022/03/25 00:24:40;;;;;;;196.65;93.95;;;;;;;3.90;90.26;102964.00;2070968;28;44419;-70
2022/03/25 00:25:42;;;;;;;182.52;90.20;;;;;;;3.90;90.36;102958.69;2079939;28;44206;-70
2022/03/25 00:26:44;;;;;;;196.02;95.95;;;;;;;3.96;90.93;102966.84;2079296;28;46223;-70
2022/03/25 00:27:46;;;;;;;199.80;97.68;;;;;;;3.98;91.07;102970.47;2079323;28;44782;-71
2022/03/25 00:28:48;;;;;;;161.77;82.63;;;;;;;3.94;90.67;102966.78;2071412;28;21021;-71
2022/03/25 00:29:49;;;;;;;177.68;87.68;;;;;;;3.94;90.71;102968.53;2062302;28;44569;-71
2022/03/25 00:30:52;;;;;;;166.05;85.47;;;;;;;3.91;90.53;102963.13;2071791;28;20031;-71
2022/03/25 00:31:54;;;;;;;164.00;83.90;;;;;;;3.92;90.49;102965.84;2079807;28;32141;-71
2022/03/25 00:32:58;;;;;;;182.48;94.22;;;;;;;3.95;91.15;102968.59;2079606;28;43374;-71
2022/03/25 00:34:00;;;;;;;168.07;85.38;;;;;;;3.94;90.96;102965.91;2070886;28;44537;-71
2022/03/25 00:35:02;;;;;;;168.68;84.30;;;;;;;3.98;91.46;102966.09;2070897;28;45443;-70
2022/03/25 00:36:07;;;;;;;182.65;88.38;;;;;;;3.96;91.53;102965.09;2080263;28;43504;-72
2022/03/25 00:37:11;;;;;;;170.43;85.10;;;;;;;3.94;91.15;102966.78;2079315;28;34342;-70
2022/03/25 00:38:12;;;;;;;169.90;84.13;;;;;;;3.92;91.04;102965.84;2079679;28;44527;-71
2022/03/25 00:39:14;;;;;;;170.43;84.45;;;;;;;3.96;90.97;102966.84;2079920;28;29053;-70
2022/03/25 00:40:16;;;;;;;169.98;85.13;;;;;;;3.93;90.83;102967.66;2079276;28;46477;-71
2022/03/25 00:41:23;;;;;;;174.73;88.05;;;;;;;3.93;91.37;102965.00;2071153;28;20109;-71
2022/03/25 00:42:25;;;;;;;181.98;91.75;;;;;;;3.98;91.76;102968.72;2062832;28;45759;-71
2022/03/25 00:43:28;;;;;;;183.43;93.65;;;;;;;3.96;91.83;102967.75;2070685;28;44424;-71
2022/03/25 00:44:29;;;;;;;165.20;82.30;;;;;;;3.96;91.67;102964.19;2079972;28;31897;-71
2022/03/25 00:45:31;;;;;;;142.63;77.63;;;;;;;3.93;91.41;102969.38;2078920;28;46164;-71
2022/03/25 00:46:34;;;;;;;156.15;82.05;;;;;;;3.88;90.79;102965.69;2079249;28;24293;-70
2022/03/25 00:47:36;;;;;;;162.82;81.88;;;;;;;3.85;91.02;102969.09;2078902;28;44918;-71
2022/03/25 00:48:39;;;;;;;142.25;74.32;;;;;;;3.81;91.31;102973.38;2070971;28;25884;-71
2022/03/25 00:49:42;;;;;;;149.15;75.63;;;;;;;3.78;91.08;102964.41;2070682;28;44040;-71
2022/03/25 00:50:47;;;;;;;157.77;81.13;;;;;;;3.73;91.25;102961.63;2079773;28;42979;-71
2022/03/25 00:51:48;;;;;;;157.85;79.32;;;;;;;3.70;90.90;102968.53;2079040;28;42090;-70
2022/03/25 00:52:50;;;;;;;164.27;80.20;;;;;;;3.65;90.84;102965.69;2080037;28;33779;-71
2022/03/25 00:53:52;;;;;;;159.27;81.00;;;;;;;3.63;91.03;102965.63;2080170;28;20034;-71
2022/03/25 00:54:54;;;;;;;169.63;83.57;;;;;;;3.61;91.35;102975.28;2079651;28;41590;-71
2022/03/25 00:55:57;;;;;;;166.45;83.45;;;;;;;3.59;91.59;102966.38;2079201;28;26162;-71
2022/03/25 00:56:58;;;;;;;165.48;85.13;;;;;;;3.57;91.42;102969.78;2070555;28;42121;-70
2022/03/25 00:58:01;;;;;;;166.13;81.30;;;;;;;3.55;91.86;102964.47;2070394;28;45789;-71
2022/03/25 00:59:03;;;;;;;159.40;79.43;;;;;;;3.55;91.79;102968.84;2079568;28;44959;-71
2022/03/25 01:00:06;;;;;;;146.82;76.47;;;;;;;3.51;91.39;102975.75;2077808;28;45244;-70
2022/03/25 01:01:08;;;;;;;157.98;80.93;;;;;;;3.50;91.87;102975.69;2080002;28;20046;-71
2022/03/25 01:02:10;;;;;;;170.88;85.68;;;;;;;3.50;91.77;102970.41;2078899;28;45052;-71
2022/03/25 01:03:12;;;;;;;159.80;79.72;;;;;;;3.49;92.26;102972.16;2079673;28;43058;-71
2022/03/25 01:04:13;;;;;;;160.73;81.85;;;;;;;3.48;91.55;102972.09;2077250;28;45079;-70
2022/03/25 01:05:17;;;;;;;153.55;78.15;;;;;;;3.47;91.46;102973.84;2079217;28;26430;-71
2022/03/25 01:06:24;;;;;;;204.25;96.20;;;;;;;3.56;92.88;102979.50;2071111;28;20042;-70
2022/03/25 01:07:26;;;;;;;193.10;92.22;;;;;;;3.50;92.19;102967.75;2071590;28;32545;-70
2022/03/25 01:08:28;;;;;;;173.20;85.90;;;;;;;3.48;91.96;102969.44;2070810;28;20061;-70
2022/03/25 01:09:30;;;;;;;167.85;84.88;;;;;;;3.46;92.21;102979.06;2071592;28;20882;-71
2022/03/25 01:10:35;;;;;;;156.15;79.20;;;;;;;3.40;92.12;102972.69;2078459;28;45238;-70
2022/03/25 01:11:37;;;;;;;151.20;77.70;;;;;;;3.38;91.57;102973.47;2079409;28;20038;-70
2022/03/25 01:12:39;;;;;;;144.98;72.75;;;;;;;3.35;91.62;102976.88;2078961;28;44535;-71
2022/03/25 01:13:41;;;;;;;161.70;79.90;;;;;;;3.32;91.83;102971.50;2080484;28;20041;-70
2022/03/25 01:14:45;;;;;;;145.00;75.03;;;;;;;3.29;92.28;102979.31;2078217;28;44972;-70
2022/03/25 01:15:49;;;;;;;153.35;77.07;;;;;;;3.24;91.95;102976.47;2079824;28;20082;-70
2022/03/25 01:16:51;;;;;;;150.82;76.95;;;;;;;3.21;92.09;102971.06;2070689;28;32426;-70
2022/03/25 01:17:53;;;;;;;140.15;74.90;;;;;;;3.18;91.83;102975.34;2070454;28;46135;-71
2022/03/25 01:18:54;;;;;;;193.43;91.97;;;;;;;3.21;92.68;102971.06;2079317;28;45355;-70
2022/03/25 01:19:56;;;;;;;156.77;77.70;;;;;;;3.19;92.49;102977.13;2079269;28;46735;-71
2022/03/25 01:21:00;;;;;;;164.57;84.15;;;;;;;3.15;91.96;102975.22;2079381;28;37032;-71
2022/03/25 01:22:03;;;;;;;185.20;86.78;;;;;;;3.11;92.10;102975.94;2078370;28;42919;-70
2022/03/25 01:23:06;;;;;;;158.68;79.15;;;;;;;3.08;92.83;102974.03;2070727;28;29619;-70
2022/03/25 01:24:08;;;;;;;152.25;75.90;;;;;;;3.04;92.16;102970.38;2071827;28;36184;-71
2022/03/25 01:25:10;;;;;;;153.27;76.15;;;;;;;3.01;91.92;102972.88;2069746;28;45522;-70
2022/03/25 01:26:12;;;;;;;147.45;74.47;;;;;;;3.00;92.00;102964.91;2071472;28;26400;-70
2022/03/25 01:27:17;;;;;;;150.88;78.50;;;;;;;2.94;92.20;102976.13;2070735;28;20109;-71
2022/03/25 01:28:18;;;;;;;163.15;83.50;;;;;;;2.89;91.81;102972.41;2070962;28;45419;-70
2022/03/25 01:29:22;;;;;;;190.88;88.18;;;;;;;2.87;92.13;102974.06;2080196;28;20077;-69
2022/03/25 01:30:24;;;;;;;145.55;73.28;;;;;;;2.87;92.22;102971.41;2078814;28;45200;-70
2022/03/25 01:31:26;;;;;;;155.75;75.63;;;;;;;2.85;92.88;102970.44;2070324;28;44657;-70
2022/03/25 01:32:28;;;;;;;163.25;80.95;;;;;;;2.84;92.30;102973.94;2071792;28;20076;-69
2022/03/25 01:33:30;;;;;;;176.18;86.05;;;;;;;2.80;92.95;102972.91;2077913;28;46895;-70
2022/03/25 01:34:33;;;;;;;174.38;86.25;;;;;;;2.78;92.63;102971.03;2070319;28;42555;-70
2022/03/25 01:35:35;;;;;;;143.65;72.55;;;;;;;2.76;92.68;102972.72;2070311;28;45590;-69
2022/03/25 01:36:37;;;;;;;166.40;82.13;;;;;;;2.73;93.01;102965.56;2078769;28;44826;-70
2022/03/25 01:37:39;;;;;;;160.45;76.90;;;;;;;2.72;92.79;102968.16;2079037;28;21765;-69
2022/03/25 01:38:41;;;;;;;147.80;74.20;;;;;;;2.72;92.81;102973.44;2070672;28;41422;-70
2022/03/25 01:39:42;;;;;;;161.75;78.63;;;;;;;2.70;93.21;102959.25;2070221;28;44478;-70
2022/03/25 01:40:44;;;;;;;193.57;87.82;;;;;;;2.71;92.38;102966.31;2079287;28;45769;-70
2022/03/25 01:41:50;;;;;;;173.10;83.05;;;;;;;2.71;92.74;102966.31;2079814;28;20760;-70
2022/03/25 01:42:55;;;;;;;144.45;73.15;;;;;;;2.70;93.04;102969.81;2070955;28;20046;-70
2022/03/25 01:44:00;;;;;;;165.80;81.38;;;;;;;2.68;93.15;102972.41;2069824;28;44878;-70
2022/03/25 01:45:04;;;;;;;173.77;80.28;;;;;;;2.64;93.12;102966.06;2078130;28;44943;-70
2022/03/25 01:46:05;;;;;;;161.75;79.50;;;;;;;2.64;93.10;102965.19;2080264;28;20045;-70
2022/03/25 01:47:08;;;;;;;188.23;88.72;;;;;;;2.62;93.08;102965.13;2070456;28;40521;-70
2022/03/25 01:48:14;;;;;;;168.25;78.53;;;;;;;2.63;93.00;102964.25;2070267;28;43416;-70
2022/03/25 01:49:16;;;;;;;193.30;88.55;;;;;;;2.61;92.93;102960.66;2070032;28;45386;-69
2022/03/25 01:50:20;;;;;;;166.23;78.50;;;;;;;2.61;93.71;102960.66;2070118;28;44850;-70
2022/03/25 01:51:34;;;;;;;184.25;84.97;;;;;;;2.61;93.38;102958.00;2080130;28;20037;-70
2022/03/25 01:52:39;;;;;;;160.48;78.43;;;;;;;2.61;93.53;102958.00;2070647;28;20046;-70
2022/03/25 01:53:43;;;;;;;160.88;77.75;;;;;;;2.59;93.54;102964.06;2063640;28;20125;-69
2022/03/25 01:54:44;;;;;;;162.60;78.72;;;;;;;2.56;93.36;102948.97;2062341;28;23285;-70
2022/03/25 01:55:56;;;;;;;148.70;72.95;;;;;;;2.53;93.27;102964.72;2070781;28;45880;-67
2022/03/25 01:57:05;;;;;;;171.27;82.68;;;;;;;2.48;93.78;102960.97;2071315;28;20055;-68
2022/03/25 01:58:07;;;;;;;159.68;77.95;;;;;;;2.45;93.97;102958.19;2063623;28;20603;-70
2022/03/25 01:59:10;;;;;;;173.05;84.18;;;;;;;2.43;93.57;102965.16;2070254;28;43517;-70
2022/03/25 02:00:15;;;;;;;146.40;70.97;;;;;;;2.41;93.93;102961.56;2078086;28;44454;-70
2022/03/25 02:01:25;;;;;;;152.30;75.13;;;;;;;2.37;93.46;102967.50;2079589;28;20176;-70
2022/03/25 02:02:27;;;;;;;172.68;83.13;;;;;;;2.35;93.12;102966.56;2078338;28;45489;-70
2022/03/25 02:03:31;;;;;;;152.82;75.00;;;;;;;2.35;93.60;102963.91;2078926;28;46020;-69
2022/03/25 02:04:33;;;;;;;167.38;79.50;;;;;;;2.35;93.68;102966.56;2078588;28;20934;-70
2022/03/25 02:05:35;;;;;;;164.57;79.47;;;;;;;2.33;93.62;102974.41;2078083;28;43931;-70
2022/03/25 02:06:37;;;;;;;166.75;78.65;;;;;;;2.33;93.07;102976.16;2070780;28;20239;-70
2022/03/25 02:07:40;;;;;;;189.40;88.60;;;;;;;2.36;93.79;102968.38;2062182;28;47896;-70
2022/03/25 02:08:43;;;;;;;153.70;75.57;;;;;;;2.35;93.34;102969.19;2063239;28;20157;-70
2022/03/25 02:09:46;;;;;;;164.77;80.50;;;;;;;2.37;93.31;102967.50;2071790;28;20924;-70
2022/03/25 02:10:48;;;;;;;177.13;87.13;;;;;;;2.34;93.41;102959.47;2070207;28;36074;-70
2022/03/25 02:11:55;;;;;;;160.32;80.05;;;;;;;2.31;93.16;102954.03;2063492;28;20054;-70
2022/03/25 02:12:57;;;;;;;143.40;70.28;;;;;;;2.27;93.23;102964.47;2070817;28;20170;-70
2022/03/25 02:13:59;;;;;;;173.43;80.97;;;;;;;2.25;93.21;102966.16;2063240;28;20183;-70
2022/03/25 02:15:03;;;;;;;181.02;83.93;;;;;;;2.24;93.52;102972.28;2062699;28;20842;-70
2022/03/25 02:16:05;;;;;;;175.93;80.68;;;;;;;2.21;93.30;102964.22;2062873;28;44792;-70
2022/03/25 02:17:06;;;;;;;164.98;79.90;;;;;;;2.21;93.29;102972.16;2063832;28;34802;-70
2022/03/25 02:18:15;;;;;;;155.55;74.80;;;;;;;2.22;93.41;102968.66;2072791;28;20114;-70
2022/03/25 02:19:20;;;;;;;192.65;88.93;;;;;;;2.20;93.34;102970.31;2071837;28;20898;-70
2022/03/25 02:20:23;;;;;;;189.20;87.05;;;;;;;2.17;93.44;102970.22;2056738;28;20909;-69
2022/03/25 02:21:29;;;;;;;207.05;90.88;;;;;;;2.20;93.56;102972.06;2064482;28;20074;-70
2022/03/25 02:22:32;;;;;;;191.73;88.68;;;;;;;2.21;93.73;102973.91;2071722;28;20049;-69
2022/03/25 02:23:33;;;;;;;219.98;94.22;;;;;;;2.20;93.46;102970.31;2064266;28;20164;-70
2022/03/25 02:24:35;;;;;;;158.50;72.90;;;;;;;2.21;93.45;102966.88;2072666;28;20042;-69
2022/03/25 02:25:38;;;;;;;162.68;78.70;;;;;;;2.18;93.04;102974.66;2072254;28;20121;-70
2022/03/25 02:26:41;;;;;;;180.15;80.72;;;;;;;2.14;93.39;102966.53;2072385;28;20914;-70
2022/03/25 02:27:46;;;;;;;196.35;87.25;;;;;;;2.10;93.65;102966.38;2071623;28;20895;-69
2022/03/25 02:28:49;;;;;;;201.55;89.32;;;;;;;2.08;92.78;102961.84;2065185;28;20039;-70
2022/03/25 02:29:51;;;;;;;189.65;86.05;;;;;;;2.06;94.16;102968.81;2071433;28;44866;-70
2022/03/25 02:30:54;;;;;;;184.35;82.70;;;;;;;2.03;93.35;102972.22;2080768;28;20034;-70
2022/03/25 02:31:56;;;;;;;187.10;85.65;;;;;;;2.04;93.23;102970.47;2081527;28;20038;-69
2022/03/25 02:33:01;;;;;;;182.02;84.32;;;;;;;2.03;94.54;102971.34;2080377;28;44541;-69
2022/03/25 02:34:06;;;;;;;179.25;80.80;;;;;;;2.02;93.83;102966.88;2072100;28;20226;-70
2022/03/25 02:35:08;;;;;;;195.13;90.47;;;;;;;2.00;94.13;102963.25;2072252;28;44327;-69
2022/03/25 02:36:10;;;;;;;182.57;86.85;;;;;;;1.99;94.00;102964.09;2072174;28;20165;-70
2022/03/25 02:37:12;;;;;;;185.85;86.82;;;;;;;1.96;93.98;102966.63;2063902;28;33003;-70
2022/03/25 02:38:20;;;;;;;162.32;79.85;;;;;;;1.94;93.55;102968.25;2063605;28;31665;-70
2022/03/25 02:39:23;;;;;;;183.15;87.22;;;;;;;1.90;93.68;102967.22;2065064;28;20059;-70
2022/03/25 02:40:25;;;;;;;178.15;80.10;;;;;;;1.90;94.29;102964.56;2072025;28;20765;-70
2022/03/25 02:41:27;;;;;;;185.05;85.63;;;;;;;1.90;94.37;102972.50;2063656;28;28004;-69
2022/03/25 02:42:29;;;;;;;176.80;80.03;;;;;;;1.88;94.25;102964.53;2063499;28;26065;-70
2022/03/25 02:43:30;;;;;;;182.07;84.47;;;;;;;1.87;94.22;102961.81;2071958;28;20120;-70
2022/03/25 02:44:38;;;;;;;187.82;83.15;;;;;;;1.86;93.70;102963.53;2073439;28;20034;-69
2022/03/25 02:45:40;;;;;;;176.98;79.53;;;;;;;1.84;94.19;102959.91;2071074;28;26738;-69
2022/03/25 02:46:42;;;;;;;208.30;88.50;;;;;;;1.82;94.09;102953.66;2071408;28;20101;-69
2022/03/25 02:47:43;;;;;;;200.80;87.88;;;;;;;1.80;94.28;102959.72;2071715;28;33514;-69
2022/03/25 02:48:45;;;;;;;196.95;86.32;;;;;;;1.79;94.08;102953.50;2062805;28;44105;-69
2022/03/25 02:49:47;;;;;;;209.80;90.90;;;;;;;1.80;94.45;102962.38;2071693;28;44314;-69
2022/03/25 02:50:49;;;;;;;195.60;86.38;;;;;;;1.78;94.68;102961.41;2079926;28;43117;-69
2022/03/25 02:51:50;;;;;;;198.88;87.82;;;;;;;1.76;94.94;102963.97;2080063;28;44194;-70
2022/03/25 02:52:53;;;;;;;178.95;79.88;;;;;;;1.76;94.31;102963.97;2080166;28;41855;-69
2022/03/25 02:53:56;;;;;;;189.75;85.88;;;;;;;1.74;94.53;102955.03;2080571;28;44245;-69
2022/03/25 02:54:57;;;;;;;170.93;78.22;;;;;;;1.75;95.15;102961.25;2071396;28;46298;-69
2022/03/25 02:56:01;;;;;;;199.55;87.85;;;;;;;1.73;94.63;102961.16;2071771;28;44290;-70
2022/03/25 02:57:04;;;;;;;171.98;80.60;;;;;;;1.71;94.45;102947.00;2079937;28;42882;-69
2022/03/25 02:58:06;;;;;;;196.48;85.78;;;;;;;1.68;94.40;102954.78;2080449;28;45990;-70
2022/03/25 02:59:09;;;;;;;193.13;85.57;;;;;;;1.67;94.35;102959.16;2079429;28;39405;-69
2022/03/25 03:00:11;;;;;;;208.20;90.13;;;;;;;1.64;94.52;102955.47;2079127;28;45043;-69
2022/03/25 03:01:13;;;;;;;221.95;91.60;;;;;;;1.64;94.71;102953.72;2079874;28;44652;-68
2022/03/25 03:02:15;;;;;;;254.23;101.82;;;;;;;1.64;94.22;102963.38;2079986;28;43760;-69
2022/03/25 03:03:20;;;;;;;198.07;82.50;;;;;;;1.61;95.10;102958.84;2079887;28;44994;-68
2022/03/25 03:04:21;;;;;;;212.38;88.32;;;;;;;1.61;94.72;102964.13;2080299;28;45166;-69
2022/03/25 03:05:23;;;;;;;195.55;87.13;;;;;;;1.59;94.82;102959.63;2079769;28;46485;-69
2022/03/25 03:06:25;;;;;;;158.90;74.65;;;;;;;1.60;95.12;102961.41;2080185;28;44415;-69
2022/03/25 03:07:27;;;;;;;196.02;86.60;;;;;;;1.56;95.17;102956.84;2079911;28;44443;-69
2022/03/25 03:08:30;;;;;;;173.15;77.65;;;;;;;1.53;94.29;102957.63;2080514;28;43319;-68
2022/03/25 03:09:32;;;;;;;207.32;91.75;;;;;;;1.50;94.65;102961.00;2080073;28;43856;-71
2022/03/25 03:10:33;;;;;;;168.15;80.35;;;;;;;1.46;94.27;102956.41;2080231;28;46191;-71
2022/03/25 03:11:36;;;;;;;196.60;86.10;;;;;;;1.42;94.38;102972.94;2079917;28;43168;-70
2022/03/25 03:12:37;;;;;;;191.75;83.93;;;;;;;1.42;94.68;102966.72;2080247;28;45365;-70
2022/03/25 03:13:39;;;;;;;200.00;85.97;;;;;;;1.42;95.39;102966.72;2079962;28;44659;-71
2022/03/25 03:14:43;;;;;;;192.55;85.30;;;;;;;1.43;95.05;102953.63;2080741;28;28775;-70
2022/03/25 03:15:45;;;;;;;181.80;82.13;;;;;;;1.42;94.95;102965.03;2079339;28;43948;-70
2022/03/25 03:16:47;;;;;;;220.98;88.70;;;;;;;1.50;95.85;102963.63;2071662;28;42261;-70
2022/03/25 03:17:49;;;;;;;224.50;92.03;;;;;;;1.51;95.74;102968.09;2071193;28;45665;-71
2022/03/25 03:18:51;;;;;;;224.93;91.57;;;;;;;1.47;95.96;102965.22;2070698;28;44279;-69
2022/03/25 03:19:53;;;;;;;219.65;88.55;;;;;;;1.47;95.32;102970.50;2071128;28;43303;-70
2022/03/25 03:20:55;;;;;;;236.40;93.63;;;;;;;1.45;95.36;102962.50;2079956;28;33162;-70
2022/03/25 03:21:58;;;;;;;249.65;97.13;;;;;;;1.46;95.26;102964.31;2079272;28;43500;-71
2022/03/25 03:23:00;;;;;;;215.27;84.78;;;;;;;1.47;95.74;102966.16;2079977;28;43722;-70
2022/03/25 03:24:04;;;;;;;228.73;89.10;;;;;;;1.48;95.36;102962.66;2079831;28;46380;-69
2022/03/25 03:25:07;;;;;;;236.75;93.40;;;;;;;1.49;95.31;102958.28;2080059;28;44809;-70
2022/03/25 03:26:09;;;;;;;233.32;88.00;;;;;;;1.50;95.37;102960.09;2079271;28;46761;-70
2022/03/25 03:27:11;;;;;;;269.08;102.53;;;;;;;1.57;95.77;102961.28;2079416;28;45812;-71
2022/03/25 03:28:13;;;;;;;275.27;104.53;;;;;;;1.68;96.57;102965.34;2079848;28;45209;-71
2022/03/25 03:29:15;;;;;;;331.05;112.07;;;;;;;1.83;97.02;102965.13;2079927;28;44943;-69
2022/03/25 03:30:17;;;;;;;260.25;97.45;;;;;;;1.71;97.49;102970.75;2079237;28;43232;-71
2022/03/25 03:31:18;;;;;;;297.30;104.72;;;;;;;1.70;96.58;102963.66;2079947;28;33864;-71
2022/03/25 03:32:20;;;;;;;264.75;103.00;;;;;;;1.68;96.76;102971.50;2079785;28;44811;-70
2022/03/25 03:33:23;;;;;;;239.57;94.07;;;;;;;1.67;96.63;102974.06;2080538;28;42765;-70
2022/03/25 03:34:24;;;;;;;220.82;90.30;;;;;;;1.63;96.39;102967.75;2078796;28;44793;-71
2022/03/25 03:35:27;;;;;;;207.80;85.03;;;;;;;1.58;96.15;102968.38;2071310;28;43051;-70
2022/03/25 03:36:29;;;;;;;204.52;87.55;;;;;;;1.53;95.70;102961.16;2071449;28;37145;-70
2022/03/25 03:37:45;;;;;;;189.13;82.50;;;;;;;1.47;96.04;102960.88;2079398;28;45801;-70
2022/03/25 03:38:47;;;;;;;168.63;74.72;;;;;;;1.45;95.54;102966.91;2080246;28;44107;-70
2022/03/25 03:39:50;;;;;;;225.73;92.25;;;;;;;1.39;95.79;102962.22;2080184;28;44278;-70
2022/03/25 03:40:52;;;;;;;206.45;89.47;;;;;;;1.35;95.37;102965.56;2079842;28;34975;-71
2022/03/25 03:41:53;;;;;;;199.57;85.10;;;;;;;1.31;95.28;102959.25;2079893;28;44092;-70
2022/03/25 03:42:55;;;;;;;202.00;83.10;;;;;;;1.29;96.01;102966.19;2079470;28;45413;-70
2022/03/25 03:43:57;;;;;;;210.35;85.93;;;;;;;1.28;95.76;102966.09;2080036;28;45025;-69
2022/03/25 03:44:58;;;;;;;243.65;96.60;;;;;;;1.27;95.69;102961.63;2079214;28;45624;-70
2022/03/25 03:46:00;;;;;;;217.95;90.00;;;;;;;1.24;95.96;102964.13;2079312;28;45527;-70
2022/03/25 03:47:03;;;;;;;191.95;83.18;;;;;;;1.23;96.11;102959.69;2079933;28;45241;-70
2022/03/25 03:48:05;;;;;;;183.57;78.70;;;;;;;1.20;96.41;102963.06;2079645;28;45135;-70
2022/03/25 03:49:06;;;;;;;195.13;84.25;;;;;;;1.20;96.49;102959.53;2080037;28;20030;-70
2022/03/25 03:50:12;;;;;;;206.80;84.32;;;;;;;1.17;95.92;102960.31;2080000;28;44290;-70
2022/03/25 03:51:13;;;;;;;215.27;87.95;;;;;;;1.17;96.19;102956.75;2078566;28;46034;-70
2022/03/25 03:52:15;;;;;;;234.98;92.55;;;;;;;1.14;95.87;102955.78;2078286;28;43744;-70
2022/03/25 03:53:17;;;;;;;237.35;91.50;;;;;;;1.17;96.08;102956.75;2078886;28;34857;-70
2022/03/25 03:54:21;;;;;;;253.23;95.15;;;;;;;1.19;95.98;102957.75;2079827;28;44879;-70
2022/03/25 03:55:41;;;;;;;188.25;76.78;;;;;;;1.16;96.81;102953.22;2080472;28;20926;-70
2022/03/25 03:56:43;;;;;;;221.60;88.38;;;;;;;1.13;96.38;102951.34;2079895;28;44646;-70
2022/03/25 03:57:46;;;;;;;221.10;87.32;;;;;;;1.08;95.56;102950.22;2080950;28;20119;-70
2022/03/25 03:58:49;;;;;;;194.55;83.47;;;;;;;1.06;95.92;102954.50;2079918;28;44878;-70
2022/03/25 03:59:51;;;;;;;240.77;94.85;;;;;;;1.02;96.29;102949.91;2070877;28;43471;-70
2022/03/25 04:00:53;;;;;;;196.88;81.05;;;;;;;1.01;95.93;102952.50;2072183;28;20107;-70
2022/03/25 04:01:57;;;;;;;208.15;88.07;;;;;;;0.96;96.09;102960.16;2079398;28;44467;-70
2022/03/25 04:02:59;;;;;;;189.30;79.43;;;;;;;0.94;96.52;102949.53;2079658;28;45327;-70
2022/03/25 04:04:01;;;;;;;249.88;94.00;;;;;;;0.96;95.99;102968.06;2079850;28;44855;-70
2022/03/25 04:05:04;;;;;;;209.15;86.03;;;;;;;0.97;96.09;102951.44;2071063;28;44658;-70
2022/03/25 04:06:09;;;;;;;206.95;82.10;;;;;;;1.01;96.61;102955.13;2071755;28;45097;-70
2022/03/25 04:07:11;;;;;;;217.55;89.78;;;;;;;1.02;96.55;102949.91;2079281;28;46544;-70
2022/03/25 04:08:14;;;;;;;242.30;92.22;;;;;;;1.01;97.06;102956.03;2080732;28;20034;-70
2022/03/25 04:09:16;;;;;;;200.20;83.40;;;;;;;0.99;96.82;102955.03;2079564;28;43262;-70
2022/03/25 04:10:18;;;;;;;205.35;86.15;;;;;;;0.98;96.50;102953.22;2079944;28;45799;-70
2022/03/25 04:11:20;;;;;;;182.68;78.63;;;;;;;0.94;97.01;102954.81;2079270;28;45518;-70
2022/03/25 04:12:21;;;;;;;174.15;75.88;;;;;;;0.94;96.38;102959.19;2070714;28;45552;-70
2022/03/25 04:13:24;;;;;;;169.63;72.93;;;;;;;0.93;96.70;102960.00;2070622;28;45064;-69
2022/03/25 04:14:26;;;;;;;192.82;84.28;;;;;;;0.90;96.77;102954.59;2079392;28;44008;-70
2022/03/25 04:15:31;;;;;;;190.38;82.15;;;;;;;0.88;96.02;102959.78;2079482;28;44680;-71
2022/03/25 04:16:32;;;;;;;184.13;80.82;;;;;;;0.85;96.17;102950.81;2079796;28;45466;-70
2022/03/25 04:17:34;;;;;;;190.43;81.47;;;;;;;0.84;96.26;102959.56;2079452;28;46772;-70
2022/03/25 04:18:36;;;;;;;191.15;81.55;;;;;;;0.80;95.92;102952.31;2080001;28;44914;-69
2022/03/25 04:19:38;;;;;;;196.05;78.40;;;;;;;0.77;95.86;102953.06;2079273;28;39833;-70
2022/03/25 04:20:42;;;;;;;208.77;85.63;;;;;;;0.78;96.79;102959.25;2078903;28;44454;-70
2022/03/25 04:21:43;;;;;;;194.52;80.82;;;;;;;0.76;96.79;102965.34;2079641;28;44119;-71
2022/03/25 04:22:46;;;;;;;210.45;84.00;;;;;;;0.78;96.60;102964.53;2079189;28;46743;-70
2022/03/25 04:23:47;;;;;;;200.43;81.32;;;;;;;0.80;97.29;102973.41;2071452;28;42986;-70
2022/03/25 04:24:49;;;;;;;204.82;81.28;;;;;;;0.80;96.40;102970.78;2071170;28;31360;-71
2022/03/25 04:25:51;;;;;;;224.48;87.03;;;;;;;0.81;96.26;102978.78;2079901;28;43918;-70
2022/03/25 04:26:53;;;;;;;215.95;82.50;;;;;;;0.81;96.94;102976.13;2079306;28;44555;-71
2022/03/25 04:27:57;;;;;;;226.88;89.55;;;;;;;0.81;97.01;102976.13;2079290;28;45566;-70
2022/03/25 04:29:04;;;;;;;199.77;74.18;;;;;;;0.82;97.09;102983.19;2079893;28;44059;-70
2022/03/25 04:30:06;;;;;;;206.50;84.35;;;;;;;0.82;97.37;102980.56;2078984;28;45440;-70
2022/03/25 04:31:08;;;;;;;185.13;75.78;;;;;;;0.82;96.99;102991.09;2079422;28;46470;-70
2022/03/25 04:32:09;;;;;;;194.80;80.20;;;;;;;0.80;97.18;102981.31;2079846;28;44941;-70
2022/03/25 04:33:11;;;;;;;202.52;82.38;;;;;;;0.76;96.46;102978.53;2079610;28;41246;-70
2022/03/25 04:34:13;;;;;;;188.23;80.38;;;;;;;0.76;95.96;102983.81;2079276;28;43844;-70
2022/03/25 04:35:15;;;;;;;218.30;88.70;;;;;;;0.76;96.24;102972.34;2079600;28;45470;-70
2022/03/25 04:36:16;;;;;;;240.95;90.45;;;;;;;0.76;96.50;102981.16;2079074;28;37367;-70
2022/03/25 04:37:18;;;;;;;221.50;83.72;;;;;;;0.75;96.30;102979.38;2078894;28;43439;-70
2022/03/25 04:38:20;;;;;;;188.30;78.75;;;;;;;0.75;96.93;102987.28;2078271;28;44432;-70
2022/03/25 04:39:21;;;;;;;180.88;75.88;;;;;;;0.72;96.37;102976.56;2078688;28;43754;-70
2022/03/25 04:40:26;;;;;;;197.23;80.30;;;;;;;0.70;96.83;102983.50;2079830;28;45834;-71
2022/03/25 04:41:27;;;;;;;219.13;91.20;;;;;;;0.67;96.19;102983.34;2079202;28;36721;-70
2022/03/25 04:42:31;;;;;;;218.73;88.05;;;;;;;0.64;96.41;102985.81;2079825;28;20119;-70
2022/03/25 04:43:33;;;;;;;179.20;74.80;;;;;;;0.62;96.51;102981.31;2079421;28;43786;-70
2022/03/25 04:44:35;;;;;;;174.48;73.75;;;;;;;0.63;96.92;102980.47;2079554;28;44202;-70
2022/03/25 04:45:37;;;;;;;162.98;73.03;;;;;;;0.61;96.85;102983.03;2079351;28;44868;-70